Station: ELLX - 28/05/2022 12:20Z (il y a 28 minutes)
ELLX 281220Z 33008KT 310V020 CAVOK 15/04 Q1020 NOSIG
Vent du 330º - 8 kt (vent de direction variable de 310º à 020º)
Visibilité > 10 km et plafond haut ou pas de nuages significatifs
Température: +15ºC - Point de rosée: +04ºC - QNH: 1020 hPa
Pas de changement significatif prévu dans les 2 heures qui suivent l'observation